Time;durP1;ratioP1;P1;durP2;ratioP2;P2;SDS_P1;SDS_P2;PMS_P1;PMS_P2;Temp;Humidity;BMP_temperature;BMP_pressure;BME280_temperature;BME280_humidity;BME280_pressure;Samples;Min_cycle;Max_cycle;Signal;HPM_P1;HPM_P2
2021/07/26 00:01:58;;;;;;;0.10;0.10;;;;;;;21.19;44.96;100571.56;5029451;28;20049;-56
2021/07/26 00:04:24;;;;;;;0.13;0.13;;;;;;;21.07;45.10;100554.03;5029417;28;20511;-57
2021/07/26 00:06:50;;;;;;;0.10;0.10;;;;;;;21.19;44.93;100568.91;5029392;28;20570;-55
2021/07/26 00:09:16;;;;;;;0.10;0.10;;;;;;;21.18;44.83;100567.22;5029608;28;20057;-55
2021/07/26 00:11:42;;;;;;;0.35;0.35;;;;;;;21.19;44.73;100567.09;5029153;28;20601;-57
2021/07/26 00:14:08;;;;;;;0.10;0.10;;;;;;;21.22;44.81;100571.28;5029579;28;20420;-55
2021/07/26 00:16:34;;;;;;;0.45;0.45;;;;;;;21.19;44.84;100572.41;5029439;28;20061;-56
2021/07/26 00:19:01;;;;;;;0.40;0.40;;;;;;;21.18;44.74;100567.22;5029153;28;20060;-56
2021/07/26 00:21:28;;;;;;;0.10;0.10;;;;;;;21.19;44.78;100574.22;5033348;28;20054;-56
2021/07/26 00:23:54;;;;;;;1.88;0.85;;;;;;;21.22;44.61;100563.31;5033398;28;20091;-57
2021/07/26 00:26:20;;;;;;;0.10;0.10;;;;;;;21.21;44.76;100564.28;5033425;28;20061;-55
2021/07/26 00:28:46;;;;;;;0.10;0.10;;;;;;;21.21;44.62;100581.06;5015574;28;20056;-56
2021/07/26 00:31:12;;;;;;;0.13;0.13;;;;;;;21.11;45.06;100574.03;5033309;28;20081;-55
2021/07/26 00:34:20;;;;;;;0.10;0.10;;;;;;;21.11;44.94;100582.00;5033456;28;20068;-54
2021/07/26 00:36:55;;;;;;;0.20;0.20;;;;;;;21.07;45.21;100575.28;5032548;28;20068;-55
2021/07/26 00:39:32;;;;;;;0.28;0.28;;;;;;;20.95;45.05;100555.06;5015682;28;20064;-55
2021/07/26 00:41:59;;;;;;;0.20;0.20;;;;;;;21.05;45.07;100577.19;5033041;28;20046;-57
2021/07/26 00:44:26;;;;;;;0.10;0.10;;;;;;;20.96;45.21;100575.34;5031856;28;20081;-54
2021/07/26 00:46:52;;;;;;;0.25;0.25;;;;;;;20.95;45.31;100576.31;5015129;28;20045;-53
2021/07/26 00:49:19;;;;;;;0.10;0.10;;;;;;;20.87;45.43;100568.19;5032949;28;20335;-55
2021/07/26 00:51:46;;;;;;;0.20;0.20;;;;;;;20.91;45.53;100578.38;5032572;28;20057;-56
2021/07/26 00:54:26;;;;;;;0.20;0.20;;;;;;;20.93;45.55;100583.56;5033022;28;20046;-53
2021/07/26 00:56:52;;;;;;;0.10;0.10;;;;;;;20.90;45.63;100586.50;5014970;28;20091;-56
2021/07/26 00:59:18;;;;;;;0.13;0.13;;;;;;;20.90;45.50;100581.19;5033026;28;20084;-55
2021/07/26 01:01:44;;;;;;;3.88;0.77;;;;;;;20.91;45.52;100577.56;5014923;28;20045;-53
2021/07/26 01:04:10;;;;;;;0.25;0.25;;;;;;;20.90;45.67;100586.50;5032982;28;20515;-55
2021/07/26 01:06:37;;;;;;;0.15;0.15;;;;;;;20.88;45.80;100583.97;5032689;28;20099;-54
2021/07/26 01:09:03;;;;;;;0.20;0.20;;;;;;;20.79;45.88;100580.28;4998734;28;21065;-57
2021/07/26 01:11:29;;;;;;;0.60;0.60;;;;;;;20.80;46.08;100589.09;5032527;28;20092;-55
2021/07/26 01:13:55;;;;;;;0.20;0.20;;;;;;;20.78;45.84;100591.88;5014629;28;20048;-55
2021/07/26 01:16:23;;;;;;;0.70;0.70;;;;;;;20.78;45.80;100593.69;5032447;28;20057;-54
2021/07/26 01:18:49;;;;;;;0.45;0.45;;;;;;;20.69;46.02;100582.06;5032292;28;20503;-55
2021/07/26 01:21:16;;;;;;;0.30;0.30;;;;;;;20.76;45.98;100592.97;5014895;28;20056;-52
2021/07/26 01:23:46;;;;;;;0.43;0.43;;;;;;;20.76;46.01;100591.19;5015052;28;20082;-57
2021/07/26 01:26:14;;;;;;;0.30;0.30;;;;;;;20.75;46.06;100589.47;5032670;28;20052;-57
2021/07/26 01:28:42;;;;;;;0.50;0.50;;;;;;;20.75;46.07;100586.84;5032381;28;20057;-57
2021/07/26 01:31:10;;;;;;;0.30;0.30;;;;;;;20.80;46.09;100594.41;5031863;28;20079;-54
2021/07/26 01:33:36;;;;;;;0.35;0.35;;;;;;;20.82;45.89;100597.75;5032611;28;20503;-56
2021/07/26 01:36:03;;;;;;;0.50;0.50;;;;;;;20.81;46.00;100593.41;5032278;28;20121;-57
2021/07/26 01:38:29;;;;;;;0.75;0.75;;;;;;;20.79;45.96;100593.56;5032552;28;20053;-58
2021/07/26 01:41:06;;;;;;;0.22;0.22;;;;;;;20.73;46.29;100583.47;5032084;28;20513;-57
2021/07/26 01:43:32;;;;;;;0.52;0.52;;;;;;;20.63;46.45;100582.56;5032556;28;20404;-55
2021/07/26 01:46:20;;;;;;;0.28;0.28;;;;;;;20.71;46.62;100601.31;5032129;28;20053;-57
2021/07/26 01:49:00;;;;;;;0.20;0.20;;;;;;;20.70;46.78;100596.16;5031813;28;20076;-57
2021/07/26 01:51:37;;;;;;;0.33;0.33;;;;;;;20.77;46.55;100605.28;5032164;28;20107;-55
2021/07/26 01:54:03;;;;;;;0.60;0.60;;;;;;;20.72;46.49;100597.72;5014659;28;20415;-54
2021/07/26 01:56:30;;;;;;;0.10;0.10;;;;;;;20.77;46.63;100600.84;5032034;28;20041;-54
2021/07/26 01:58:56;;;;;;;0.17;0.17;;;;;;;20.74;47.03;100609.03;5031834;28;20491;-56
2021/07/26 02:01:22;;;;;;;0.35;0.35;;;;;;;20.72;47.81;100608.31;5031639;28;20107;-55
2021/07/26 02:03:48;;;;;;;0.10;0.10;;;;;;;20.66;48.97;100614.16;5031527;28;20522;-56
2021/07/26 02:06:14;;;;;;;0.28;0.28;;;;;;;20.68;48.47;100616.69;5031906;28;20053;-55
2021/07/26 02:08:40;;;;;;;0.47;0.47;;;;;;;20.64;48.85;100610.81;5031620;28;20088;-56
2021/07/26 02:11:06;;;;;;;0.45;0.45;;;;;;;20.49;49.12;100590.00;5031219;28;20535;-57
2021/07/26 02:13:36;;;;;;;0.10;0.10;;;;;;;20.54;49.40;100607.25;5014231;28;20053;-57
2021/07/26 02:16:02;;;;;;;0.10;0.10;;;;;;;20.56;50.22;100615.06;5031170;28;20049;-57
2021/07/26 02:18:28;;;;;;;0.35;0.35;;;;;;;20.54;50.03;100617.84;5031649;28;20057;-57
2021/07/26 02:20:54;;;;;;;0.22;0.22;;;;;;;20.55;49.58;100616.06;5031369;28;20049;-56
2021/07/26 02:23:20;;;;;;;0.20;0.20;;;;;;;20.54;49.18;100612.56;5031474;28;20072;-58
2021/07/26 02:25:46;;;;;;;0.50;0.50;;;;;;;20.62;49.08;100618.03;5031143;28;20052;-56
2021/07/26 02:28:12;;;;;;;0.57;0.57;;;;;;;20.68;49.55;100617.50;5031134;28;20507;-58
2021/07/26 02:30:38;;;;;;;0.30;0.30;;;;;;;20.75;49.87;100616.03;5031355;28;20050;-59
2021/07/26 02:33:05;;;;;;;0.88;0.57;;;;;;;20.79;49.54;100620.09;5031485;28;20038;-59
2021/07/26 02:35:31;;;;;;;0.68;0.68;;;;;;;20.89;48.88;100622.81;5030878;28;20045;-57
2021/07/26 02:37:58;;;;;;;0.20;0.20;;;;;;;20.89;49.13;100620.16;5031509;28;20041;-57
2021/07/26 02:40:52;;;;;;;0.10;0.10;;;;;;;20.97;48.46;100622.19;5031789;28;20080;-59
2021/07/26 02:43:27;;;;;;;0.30;0.30;;;;;;;21.08;48.02;100619.41;4993444;28;20137;-58
2021/07/26 02:45:54;;;;;;;0.20;0.20;;;;;;;21.13;47.56;100623.41;5029836;28;20053;-57
2021/07/26 02:48:21;;;;;;;0.90;0.90;;;;;;;21.21;47.38;100630.69;5002985;28;20523;-59
2021/07/26 02:50:47;;;;;;;0.73;0.73;;;;;;;21.20;47.63;100629.03;4994001;28;20053;-57
2021/07/26 02:53:13;;;;;;;0.30;0.30;;;;;;;21.18;48.02;100636.28;5011772;28;20053;-58
2021/07/26 02:55:44;;;;;;;0.47;0.47;;;;;;;21.21;48.01;100636.00;4977712;28;20050;-61
2021/07/26 02:58:12;;;;;;;0.20;0.20;;;;;;;21.28;47.53;100639.81;4962027;28;20508;-57
2021/07/26 03:00:37;;;;;;;0.40;0.40;;;;;;;21.33;46.83;100642.09;5011132;28;20053;-59
2021/07/26 03:03:04;;;;;;;0.30;0.30;;;;;;;21.40;46.96;100640.59;4992928;28;20141;-58
2021/07/26 03:05:32;;;;;;;0.32;0.32;;;;;;;21.45;46.37;100644.50;5010895;28;20516;-57
2021/07/26 03:07:58;;;;;;;0.38;0.38;;;;;;;21.54;46.25;100642.84;5010775;28;20057;-57
2021/07/26 03:10:24;;;;;;;0.30;0.30;;;;;;;21.57;45.76;100646.09;5010707;28;20082;-57
2021/07/26 03:12:50;;;;;;;2.10;2.00;;;;;;;21.67;45.30;100644.31;5010621;28;20049;-57
2021/07/26 03:15:18;;;;;;;0.85;0.85;;;;;;;21.70;44.96;100622.75;5010658;28;20057;-57
2021/07/26 03:17:45;;;;;;;0.40;0.40;;;;;;;21.93;44.41;100634.03;5010489;28;20053;-58
2021/07/26 03:20:12;;;;;;;0.43;0.43;;;;;;;22.18;43.99;100641.50;4992747;28;20050;-57
2021/07/26 03:23:07;;;;;;;0.38;0.38;;;;;;;22.39;43.76;100637.84;5010682;28;20140;-58
2021/07/26 03:25:33;;;;;;;0.20;0.20;;;;;;;22.63;43.08;100633.78;5011017;28;20061;-58
2021/07/26 03:28:00;;;;;;;1.92;0.82;;;;;;;23.11;41.55;100632.84;5010270;28;20069;-58
2021/07/26 03:30:26;;;;;;;1.15;1.15;;;;;;;23.64;40.45;100630.41;5010217;28;20053;-58
2021/07/26 03:32:52;;;;;;;0.38;0.38;;;;;;;24.52;38.73;100633.19;5010191;28;20132;-60
2021/07/26 03:35:18;;;;;;;0.38;0.38;;;;;;;24.70;38.17;100630.50;5010321;28;20054;-57
2021/07/26 03:37:45;;;;;;;0.57;0.57;;;;;;;25.01;37.74;100639.75;5010176;28;20050;-56
2021/07/26 03:40:11;;;;;;;1.35;1.05;;;;;;;24.88;38.26;100637.50;4992363;28;20046;-58
2021/07/26 03:42:37;;;;;;;0.60;0.60;;;;;;;24.79;38.53;100634.88;5010267;28;20089;-58
2021/07/26 03:45:04;;;;;;;0.57;0.57;;;;;;;24.84;38.46;100632.59;4976225;28;20065;-57
2021/07/26 03:47:29;;;;;;;0.70;0.70;;;;;;;25.47;37.65;100638.47;5013386;28;20046;-59
2021/07/26 03:49:55;;;;;;;0.38;0.38;;;;;;;26.34;36.03;100635.44;5029632;28;20463;-58
2021/07/26 03:52:21;;;;;;;0.38;0.38;;;;;;;26.63;35.58;100633.09;5029503;28;20132;-58
2021/07/26 03:54:47;;;;;;;0.65;0.65;;;;;;;26.31;36.17;100635.75;5011259;28;20467;-58
2021/07/26 03:57:13;;;;;;;0.57;0.57;;;;;;;26.16;36.60;100630.22;5029392;28;20053;-58
2021/07/26 03:59:39;;;;;;;0.90;0.90;;;;;;;26.76;35.09;100598.59;5029749;28;20049;-58
2021/07/26 04:02:05;;;;;;;0.75;0.75;;;;;;;27.46;34.27;100616.69;5029150;28;20080;-58
2021/07/26 04:04:31;;;;;;;0.30;0.30;;;;;;;27.81;33.84;100635.00;5029718;28;20080;-58
2021/07/26 04:07:01;;;;;;;0.60;0.60;;;;;;;27.91;33.69;100625.69;5011662;28;20069;-59
2021/07/26 04:09:33;;;;;;;0.65;0.65;;;;;;;28.00;33.35;100628.31;5029727;28;20045;-59
2021/07/26 04:12:03;;;;;;;0.68;0.68;;;;;;;28.00;33.44;100628.31;4996254;28;20412;-59
2021/07/26 04:14:34;;;;;;;1.50;1.48;;;;;;;28.58;32.15;100631.28;5012722;28;20045;-59
2021/07/26 04:17:00;;;;;;;0.70;0.70;;;;;;;28.71;31.66;100631.53;5029157;28;20431;-59
2021/07/26 04:19:26;;;;;;;3.15;1.60;;;;;;;28.80;31.81;100629.56;5011952;28;20080;-58
2021/07/26 04:21:55;;;;;;;0.85;0.55;;;;;;;28.93;31.27;100619.88;5029306;28;20049;-59
2021/07/26 04:24:21;;;;;;;0.50;0.50;;;;;;;29.07;31.19;100628.97;4995685;28;20052;-58
2021/07/26 04:26:47;;;;;;;0.60;0.60;;;;;;;28.88;31.41;100630.34;5029357;28;20053;-59
2021/07/26 04:29:31;;;;;;;0.45;0.45;;;;;;;29.06;30.98;100623.78;5029817;28;20148;-59
2021/07/26 04:31:58;;;;;;;0.52;0.52;;;;;;;29.27;30.63;100623.91;5027639;28;20045;-59
2021/07/26 04:34:23;;;;;;;0.57;0.57;;;;;;;29.51;30.02;100623.63;5029324;28;20431;-58
2021/07/26 04:36:50;;;;;;;0.40;0.40;;;;;;;29.65;29.62;100617.34;5011328;28;20057;-59
2021/07/26 04:39:15;;;;;;;0.93;0.85;;;;;;;29.69;29.79;100613.28;5029030;28;20598;-59
2021/07/26 04:41:41;;;;;;;0.40;0.40;;;;;;;29.83;29.58;100617.84;5029195;28;20053;-59
2021/07/26 04:44:08;;;;;;;0.32;0.32;;;;;;;30.02;29.41;100620.91;5028944;28;20056;-59
2021/07/26 04:46:34;;;;;;;0.50;0.50;;;;;;;30.13;29.22;100607.78;5029168;28;20049;-58
2021/07/26 04:49:00;;;;;;;0.43;0.43;;;;;;;30.32;28.76;100614.38;5028829;28;20058;-58
2021/07/26 04:51:26;;;;;;;0.50;0.50;;;;;;;30.41;29.03;100615.94;5029005;28;20049;-59
2021/07/26 04:53:52;;;;;;;1.00;0.95;;;;;;;30.56;28.71;100608.63;5011736;28;20057;-59
2021/07/26 04:56:18;;;;;;;1.10;1.05;;;;;;;30.84;28.19;100611.31;5028804;28;20135;-59
2021/07/26 04:59:03;;;;;;;0.50;0.50;;;;;;;30.98;27.88;100607.72;5028868;28;20060;-59
2021/07/26 05:01:29;;;;;;;0.55;0.55;;;;;;;31.04;27.86;100606.09;5028906;28;20100;-59
2021/07/26 05:03:55;;;;;;;0.50;0.50;;;;;;;31.12;27.47;100603.25;5011391;28;20049;-59
2021/07/26 05:06:21;;;;;;;0.47;0.47;;;;;;;31.29;27.19;100593.75;5012728;28;20053;-59
2021/07/26 05:08:47;;;;;;;0.30;0.30;;;;;;;31.11;27.44;100604.25;5032808;28;20060;-59
2021/07/26 05:11:13;;;;;;;0.30;0.30;;;;;;;31.33;27.06;100601.28;5014629;28;20045;-59
2021/07/26 05:13:40;;;;;;;0.65;0.65;;;;;;;31.51;26.60;100606.16;5032658;28;20107;-59
2021/07/26 05:16:06;;;;;;;0.35;0.35;;;;;;;31.58;26.41;100603.50;5032171;28;20128;-59
2021/07/26 05:18:33;;;;;;;0.28;0.28;;;;;;;31.68;26.46;100607.47;5014921;28;20053;-59
2021/07/26 05:20:59;;;;;;;0.30;0.30;;;;;;;31.86;26.44;100596.94;5032238;28;20056;-59
2021/07/26 05:23:25;;;;;;;0.52;0.52;;;;;;;32.03;26.00;100591.97;5014624;28;20054;-59
2021/07/26 05:25:51;;;;;;;0.55;0.55;;;;;;;32.11;25.97;100599.06;5031298;28;20053;-60
2021/07/26 05:28:17;;;;;;;0.20;0.20;;;;;;;32.18;26.10;100594.50;5032166;28;20049;-59
2021/07/26 05:30:43;;;;;;;0.32;0.32;;;;;;;32.22;26.01;100595.78;5014573;28;20060;-59
2021/07/26 05:33:09;;;;;;;0.63;0.63;;;;;;;32.24;25.93;100588.28;5031993;28;20057;-59
2021/07/26 05:35:35;;;;;;;0.35;0.35;;;;;;;32.47;25.34;100604.94;5014677;28;20041;-59
2021/07/26 05:38:03;;;;;;;0.30;0.30;;;;;;;32.38;25.78;100595.38;5031915;28;20053;-59
2021/07/26 05:40:29;;;;;;;0.40;0.40;;;;;;;32.51;25.72;100592.66;5032053;28;20511;-59
2021/07/26 05:42:55;;;;;;;0.65;0.65;;;;;;;32.53;25.34;100595.97;5032073;28;20088;-59
2021/07/26 05:45:21;;;;;;;0.60;0.60;;;;;;;32.53;25.15;100588.69;5031708;28;20050;-60
2021/07/26 05:47:50;;;;;;;0.43;0.43;;;;;;;32.65;24.91;100585.41;5031635;28;20185;-59
2021/07/26 05:50:17;;;;;;;0.25;0.25;;;;;;;32.56;25.45;100592.06;5031795;28;20075;-59
2021/07/26 05:52:43;;;;;;;0.20;0.20;;;;;;;32.73;24.74;100585.19;5031909;28;20081;-58
2021/07/26 05:55:10;;;;;;;0.30;0.30;;;;;;;32.80;24.43;100591.41;5031670;28;20045;-58
2021/07/26 05:57:38;;;;;;;0.30;0.30;;;;;;;32.85;24.50;100595.16;5031772;28;20521;-59
2021/07/26 06:00:09;;;;;;;0.25;0.25;;;;;;;32.73;24.66;100587.88;5031346;28;20603;-58
2021/07/26 06:02:35;;;;;;;0.32;0.32;;;;;;;32.89;24.38;100585.56;5014872;28;20060;-56
2021/07/26 06:05:01;;;;;;;0.38;0.38;;;;;;;33.05;23.48;100580.75;5031415;28;20068;-57
2021/07/26 06:07:27;;;;;;;0.38;0.38;;;;;;;33.05;23.66;100581.56;5013846;28;20038;-57
2021/07/26 06:09:53;;;;;;;0.20;0.20;;;;;;;33.00;24.01;100582.22;5031567;28;20064;-56
2021/07/26 06:12:20;;;;;;;0.20;0.20;;;;;;;33.20;23.01;100578.66;5031044;28;20478;-57
2021/07/26 06:14:46;;;;;;;0.20;0.20;;;;;;;33.19;22.79;100582.41;5014000;28;20059;-57
2021/07/26 06:17:11;;;;;;;0.22;0.22;;;;;;;33.29;22.73;100571.94;5030297;28;20445;-58
2021/07/26 06:19:38;;;;;;;1.55;0.40;;;;;;;33.28;22.20;100575.72;5031551;28;20053;-56
2021/07/26 06:22:03;;;;;;;0.10;0.10;;;;;;;33.30;22.47;100573.63;5031023;28;20049;-58
2021/07/26 06:24:29;;;;;;;0.10;0.10;;;;;;;33.46;22.14;100573.13;5031337;28;20547;-58
2021/07/26 06:26:56;;;;;;;0.20;0.20;;;;;;;33.57;21.79;100574.34;5013599;28;20053;-57
2021/07/26 06:29:23;;;;;;;0.10;0.10;;;;;;;34.14;21.21;100581.53;4996814;28;20052;-57
2021/07/26 06:31:49;;;;;;;0.20;0.20;;;;;;;36.17;18.90;100573.03;5031051;28;20130;-55
2021/07/26 06:34:15;;;;;;;0.75;0.75;;;;;;;40.35;15.09;100571.22;5030904;28;20053;-57
2021/07/26 06:36:41;;;;;;;0.70;0.70;;;;;;;43.31;12.44;100570.44;5030958;28;20103;-58
2021/07/26 06:39:09;;;;;;;0.90;0.90;;;;;;;45.25;11.20;100561.09;5030832;28;20135;-56
2021/07/26 06:41:38;;;;;;;0.63;0.63;;;;;;;46.31;10.02;100565.03;5031030;28;20064;-58
2021/07/26 06:44:05;;;;;;;0.60;0.60;;;;;;;46.94;9.59;100560.53;5030702;28;20080;-59
2021/07/26 06:46:32;;;;;;;0.60;0.60;;;;;;;47.11;9.50;100553.56;5030710;28;20052;-57
2021/07/26 06:48:57;;;;;;;0.60;0.60;;;;;;;47.13;9.33;100565.94;5009766;28;20129;-59
2021/07/26 06:51:26;;;;;;;0.60;0.60;;;;;;;47.20;9.45;100551.72;4993106;28;20056;-58
2021/07/26 06:53:52;;;;;;;0.60;0.60;;;;;;;47.17;9.50;100568.94;4993620;28;20054;-58
2021/07/26 06:56:18;;;;;;;0.40;0.40;;;;;;;45.87;10.28;100569.06;5010633;28;20050;-58
2021/07/26 06:58:45;;;;;;;0.30;0.30;;;;;;;42.16;12.47;100562.13;5011038;28;20208;-57
2021/07/26 07:01:12;;;;;;;0.10;0.10;;;;;;;38.93;15.25;100562.53;5010655;28;20052;-58
2021/07/26 07:03:47;;;;;;;0.10;0.10;;;;;;;36.95;17.20;100566.22;5010946;28;20368;-56
2021/07/26 07:06:16;;;;;;;0.10;0.10;;;;;;;35.84;18.29;100576.22;5010593;28;20045;-56
2021/07/26 07:08:43;;;;;;;0.10;0.10;;;;;;;34.91;19.80;100560.22;5010803;28;20045;-58
2021/07/26 07:11:10;;;;;;;0.10;0.10;;;;;;;34.48;20.30;100562.91;5010200;28;20053;-58
2021/07/26 07:13:38;;;;;;;0.10;0.10;;;;;;;34.16;20.86;100563.19;5010751;28;20133;-58
2021/07/26 07:16:08;;;;;;;0.10;0.10;;;;;;;33.76;21.26;100568.84;4992998;28;20080;-58
2021/07/26 07:18:35;;;;;;;0.10;0.10;;;;;;;33.49;21.70;100568.13;5010646;28;20871;-57
2021/07/26 07:21:01;;;;;;;0.05;0.05;;;;;;;33.38;22.05;100567.94;5010359;28;20060;-56
2021/07/26 07:23:27;;;;;;;0.03;0.03;;;;;;;33.33;22.10;100570.47;5010211;28;20044;-57
2021/07/26 07:25:54;;;;;;;0.10;0.10;;;;;;;33.14;22.34;100571.38;5010370;28;20054;-56
2021/07/26 07:28:20;;;;;;;0.10;0.10;;;;;;;33.11;22.13;100574.53;5009889;28;20104;-55
2021/07/26 07:30:46;;;;;;;0.20;0.20;;;;;;;32.94;21.94;100569.53;5010332;28;20052;-57
2021/07/26 07:33:12;;;;;;;0.15;0.15;;;;;;;32.70;22.33;100566.66;5009998;28;20050;-58
2021/07/26 07:35:39;;;;;;;0.10;0.10;;;;;;;32.48;22.67;100569.56;5010316;28;20069;-58
2021/07/26 07:38:05;;;;;;;0.10;0.10;;;;;;;32.27;22.91;100563.53;4992588;28;20045;-58
2021/07/26 07:40:30;;;;;;;0.10;0.10;;;;;;;32.19;22.81;100566.47;5010107;28;20049;-58
2021/07/26 07:42:57;;;;;;;0.28;0.28;;;;;;;32.17;23.56;100565.81;4992725;28;20049;-58
2021/07/26 07:45:22;;;;;;;0.00;0.00;;;;;;;32.25;23.40;100573.72;5009838;28;20140;-58
2021/07/26 07:47:51;;;;;;;0.10;0.10;;;;;;;32.24;23.35;100572.06;5015898;28;20045;-58
2021/07/26 07:50:20;;;;;;;0.10;0.10;;;;;;;32.36;23.42;100570.41;5012414;28;20503;-57
2021/07/26 07:52:46;;;;;;;0.20;0.20;;;;;;;32.34;23.28;100556.25;5029661;28;20399;-57
2021/07/26 07:55:12;;;;;;;0.10;0.10;;;;;;;32.56;22.98;100559.59;5029499;28;20050;-58
2021/07/26 07:57:38;;;;;;;0.10;0.10;;;;;;;32.22;22.03;100563.34;5029634;28;20076;-58
2021/07/26 08:00:06;;;;;;;0.05;0.05;;;;;;;31.87;22.18;100568.06;5029502;28;20049;-57
2021/07/26 08:02:33;;;;;;;0.00;0.00;;;;;;;31.59;22.44;100568.16;5029482;28;20531;-58
2021/07/26 08:04:59;;;;;;;0.10;0.10;;;;;;;31.31;23.51;100570.13;5029425;28;20136;-58
2021/07/26 08:07:26;;;;;;;0.10;0.10;;;;;;;31.13;24.41;100569.81;5028878;28;20693;-58
2021/07/26 08:09:52;;;;;;;0.20;0.20;;;;;;;31.02;24.34;100570.38;5029554;28;20057;-57
2021/07/26 08:12:18;;;;;;;0.10;0.10;;;;;;;30.80;24.35;100570.41;5029010;28;20590;-57
2021/07/26 08:14:45;;;;;;;0.00;0.00;;;;;;;30.70;24.40;100569.94;5029356;28;20137;-57
2021/07/26 08:17:11;;;;;;;0.08;0.08;;;;;;;30.59;24.60;100567.78;5028870;28;20598;-58
2021/07/26 08:19:37;;;;;;;0.10;0.10;;;;;;;30.59;25.05;100575.03;5029277;28;20053;-56
2021/07/26 08:22:03;;;;;;;0.00;0.00;;;;;;;30.75;24.86;100564.78;5029245;28;20052;-56
2021/07/26 08:24:29;;;;;;;0.10;0.10;;;;;;;30.96;24.44;100564.72;5011190;28;20442;-58
2021/07/26 08:26:55;;;;;;;0.10;0.10;;;;;;;31.02;24.23;100575.78;5029322;28;20180;-57
2021/07/26 08:29:21;;;;;;;0.00;0.00;;;;;;;30.83;24.21;100551.13;5011389;28;20132;-57
2021/07/26 08:31:47;;;;;;;0.00;0.00;;;;;;;30.59;23.91;100572.34;5029114;28;20046;-54
2021/07/26 08:34:13;;;;;;;0.10;0.10;;;;;;;30.48;24.16;100571.00;5027787;28;20049;-56
2021/07/26 08:36:39;;;;;;;0.10;0.10;;;;;;;30.39;24.11;100572.16;5029007;28;20107;-57
2021/07/26 08:39:05;;;;;;;0.08;0.08;;;;;;;30.25;24.33;100568.50;5029145;28;20053;-56
2021/07/26 08:41:31;;;;;;;0.15;0.15;;;;;;;30.29;24.59;100569.81;5031147;28;20048;-57
2021/07/26 08:43:57;;;;;;;0.03;0.03;;;;;;;30.29;24.63;100558.19;5033112;28;20076;-55
2021/07/26 08:46:23;;;;;;;0.10;0.10;;;;;;;30.29;25.22;100571.66;5032543;28;20506;-56
2021/07/26 08:48:49;;;;;;;0.00;0.00;;;;;;;30.16;25.09;100564.28;5015155;28;20422;-57
2021/07/26 08:51:20;;;;;;;0.10;0.10;;;;;;;30.02;25.51;100569.72;5031406;28;20109;-57
2021/07/26 08:53:48;;;;;;;0.25;0.25;;;;;;;29.83;24.99;100555.88;4999503;28;20611;-56
2021/07/26 08:56:17;;;;;;;0.00;0.00;;;;;;;29.68;24.98;100560.44;5032737;28;20503;-57
2021/07/26 08:58:44;;;;;;;0.00;0.00;;;;;;;29.41;25.09;100561.19;5032922;28;20482;-55
2021/07/26 09:01:11;;;;;;;0.00;0.00;;;;;;;29.44;25.04;100571.56;5032541;28;20470;-57
2021/07/26 09:03:37;;;;;;;0.00;0.00;;;;;;;29.31;24.75;100557.94;5015202;28;20052;-56
2021/07/26 09:06:03;;;;;;;0.00;0.00;;;;;;;29.26;24.99;100569.25;5032694;28;20049;-56
2021/07/26 09:08:36;;;;;;;0.00;0.00;;;;;;;29.20;25.29;100569.13;5032387;28;20050;-57
2021/07/26 09:11:05;;;;;;;0.00;0.00;;;;;;;29.13;25.66;100562.81;5032631;28;20046;-56
2021/07/26 09:13:44;;;;;;;0.10;0.10;;;;;;;29.02;25.08;100564.16;5032087;28;20067;-55
2021/07/26 09:16:20;;;;;;;0.10;0.10;;;;;;;28.97;25.25;100563.84;5032262;28;20052;-57
2021/07/26 09:19:08;;;;;;;0.00;0.00;;;;;;;28.67;25.81;100538.81;5032535;28;20503;-57
2021/07/26 09:21:50;;;;;;;0.00;0.00;;;;;;;28.74;26.00;100560.41;5032233;28;20126;-57
2021/07/26 09:24:27;;;;;;;0.10;0.10;;;;;;;28.64;26.08;100552.59;5032214;28;20038;-56
2021/07/26 09:26:54;;;;;;;0.00;0.00;;;;;;;28.62;26.37;100557.31;5014851;28;20053;-55
2021/07/26 09:29:27;;;;;;;0.00;0.00;;;;;;;28.63;26.79;100558.97;5014496;28;20073;-60
2021/07/26 09:31:57;;;;;;;0.00;0.00;;;;;;;28.68;26.84;100562.00;5032207;28;20503;-54
2021/07/26 09:34:23;;;;;;;0.00;0.00;;;;;;;28.72;27.20;100557.09;5032132;28;20103;-58
2021/07/26 09:36:49;;;;;;;0.00;0.00;;;;;;;28.92;26.94;100559.06;5032182;28;20049;-58
2021/07/26 09:39:28;;;;;;;0.10;0.10;;;;;;;29.09;26.85;100556.97;5032179;28;20491;-58
2021/07/26 09:41:56;;;;;;;0.10;0.10;;;;;;;29.20;26.13;100551.16;5032135;28;20077;-57
2021/07/26 09:44:23;;;;;;;0.10;0.10;;;;;;;29.37;26.03;100562.56;5014061;28;20127;-56
2021/07/26 09:46:50;;;;;;;0.10;0.10;;;;;;;29.54;26.18;100550.56;5030688;28;20060;-56
2021/07/26 09:49:20;;;;;;;0.20;0.20;;;;;;;29.68;26.02;100549.66;5031477;28;20530;-56
2021/07/26 09:52:08;;;;;;;0.10;0.10;;;;;;;29.80;25.69;100542.78;5031006;28;20054;-56
2021/07/26 09:54:43;;;;;;;0.10;0.10;;;;;;;29.90;25.38;100543.31;5031457;28;20041;-57
2021/07/26 09:57:20;;;;;;;0.10;0.10;;;;;;;29.94;24.91;100544.59;5031678;28;20045;-57
2021/07/26 09:59:46;;;;;;;0.00;0.00;;;;;;;29.97;25.32;100544.19;5030514;28;20124;-57
2021/07/26 10:02:13;;;;;;;0.10;0.10;;;;;;;30.01;25.22;100533.88;5031627;28;20431;-56
2021/07/26 10:04:42;;;;;;;0.00;0.00;;;;;;;30.10;25.03;100542.69;5031641;28;20061;-58
2021/07/26 10:07:09;;;;;;;0.10;0.10;;;;;;;30.16;24.54;100541.91;5031405;28;20064;-58
2021/07/26 10:09:35;;;;;;;0.00;0.00;;;;;;;30.16;24.81;100536.50;5031332;28;20049;-57
2021/07/26 10:12:01;;;;;;;0.00;0.00;;;;;;;30.17;24.62;100532.78;5031457;28;20123;-58
2021/07/26 10:14:27;;;;;;;0.00;0.00;;;;;;;30.19;24.77;100536.13;5031377;28;20056;-57
2021/07/26 10:16:58;;;;;;;0.00;0.00;;;;;;;30.23;24.51;100534.72;5031253;28;20045;-58
2021/07/26 10:19:24;;;;;;;0.30;0.30;;;;;;;30.24;24.47;100518.31;5014019;28;20049;-57
2021/07/26 10:21:54;;;;;;;0.10;0.10;;;;;;;30.33;24.14;100525.22;5031158;28;20128;-57
2021/07/26 10:24:19;;;;;;;0.00;0.00;;;;;;;30.49;23.98;100526.88;5013480;28;20408;-57
2021/07/26 10:26:46;;;;;;;0.00;0.00;;;;;;;30.54;24.08;100524.41;5013503;28;20075;-55
2021/07/26 10:29:11;;;;;;;0.10;0.10;;;;;;;30.53;24.43;100520.03;5013564;28;20511;-56
2021/07/26 10:31:38;;;;;;;0.00;0.00;;;;;;;30.47;24.44;100524.34;5030969;28;20071;-57
2021/07/26 10:34:19;;;;;;;0.25;0.25;;;;;;;30.42;24.31;100525.97;5013606;28;20053;-57
2021/07/26 10:36:47;;;;;;;0.15;0.15;;;;;;;30.39;24.80;100519.09;5030940;28;20060;-57
2021/07/26 10:39:13;;;;;;;0.10;0.10;;;;;;;30.36;24.55;100516.78;5031146;28;20045;-57
2021/07/26 10:41:47;;;;;;;0.30;0.30;;;;;;;30.39;24.25;100518.25;5030818;28;20578;-56
2021/07/26 10:44:16;;;;;;;0.00;0.00;;;;;;;30.38;23.92;100505.78;5030903;28;20053;-57
2021/07/26 10:46:51;;;;;;;0.10;0.10;;;;;;;30.37;24.53;100512.19;5030839;28;20136;-57
2021/07/26 10:49:17;;;;;;;0.00;0.00;;;;;;;30.37;24.33;100501.41;5030668;28;20061;-58
2021/07/26 10:51:45;;;;;;;0.10;0.10;;;;;;;30.41;24.23;100500.03;5030601;28;20067;-58
2021/07/26 10:54:44;;;;;;;0.00;0.00;;;;;;;30.46;24.49;100513.78;5013097;28;20423;-58
2021/07/26 10:57:10;;;;;;;0.68;0.68;;;;;;;30.32;23.51;100503.88;4986540;28;20065;-57
2021/07/26 11:00:07;;;;;;;0.10;0.10;;;;;;;30.24;23.59;100502.16;5030546;28;20374;-59
2021/07/26 11:02:44;;;;;;;0.13;0.13;;;;;;;30.25;24.51;100511.91;5012594;28;20065;-59
2021/07/26 11:05:29;;;;;;;0.10;0.10;;;;;;;30.27;24.35;100506.31;5029822;28;20132;-57
2021/07/26 11:08:13;;;;;;;0.05;0.05;;;;;;;30.30;23.75;100503.25;5012719;28;20144;-57
2021/07/26 11:10:43;;;;;;;0.10;0.10;;;;;;;30.29;24.09;100507.81;5031012;28;20084;-58
2021/07/26 11:13:09;;;;;;;0.20;0.20;;;;;;;30.25;23.35;100497.59;5012767;28;20434;-58
2021/07/26 11:15:51;;;;;;;0.20;0.20;;;;;;;30.21;22.82;100493.63;5012631;28;20124;-59
2021/07/26 11:18:28;;;;;;;0.10;0.10;;;;;;;30.22;23.40;100492.63;5030097;28;20045;-58
2021/07/26 11:21:05;;;;;;;0.20;0.20;;;;;;;30.29;23.96;100494.34;5013626;28;20046;-58
2021/07/26 11:23:35;;;;;;;0.30;0.30;;;;;;;30.26;23.90;100485.81;5012262;28;20053;-58
2021/07/26 11:26:03;;;;;;;1.13;0.20;;;;;;;30.25;23.76;100487.66;5030097;28;20053;-58
2021/07/26 11:28:38;;;;;;;0.00;0.00;;;;;;;30.19;23.85;100487.63;5012035;28;20049;-58
2021/07/26 11:31:04;;;;;;;0.10;0.10;;;;;;;30.25;23.74;100478.75;5030002;28;20053;-58